createdAt,value
2018-09-23T00:00:26.964Z,1010.85
2018-09-23T00:01:26.886Z,1010.79
2018-09-23T00:02:26.812Z,1010.78
2018-09-23T00:03:26.736Z,1010.80
2018-09-23T00:04:26.659Z,1010.76
2018-09-23T00:05:26.583Z,1010.78
2018-09-23T00:06:26.508Z,1010.74
2018-09-23T00:07:26.428Z,1010.72
2018-09-23T00:08:26.355Z,1010.68
2018-09-23T00:09:26.280Z,1010.70
2018-09-23T00:10:26.203Z,1010.70
2018-09-23T00:11:26.127Z,1010.70
2018-09-23T00:12:26.049Z,1010.74
2018-09-23T00:13:25.976Z,1010.72
2018-09-23T00:14:25.907Z,1010.72
2018-09-23T00:15:25.834Z,1010.69
2018-09-23T00:16:25.749Z,1010.68
2018-09-23T00:17:25.671Z,1010.63
2018-09-23T00:18:25.601Z,1010.56
2018-09-23T00:19:25.520Z,1010.51
2018-09-23T00:20:25.444Z,1010.52
2018-09-23T00:21:25.369Z,1010.54
2018-09-23T00:22:25.294Z,1010.53
2018-09-23T00:23:25.217Z,1010.46
2018-09-23T00:24:25.143Z,1010.45
2018-09-23T00:25:25.062Z,1010.43
2018-09-23T00:26:24.986Z,1010.46
2018-09-23T00:27:24.910Z,1010.43
2018-09-23T00:28:24.836Z,1010.44
2018-09-23T00:29:24.761Z,1010.49
2018-09-23T00:30:24.687Z,1010.54
2018-09-23T00:31:24.610Z,1010.52
2018-09-23T00:32:24.574Z,1010.54
2018-09-23T00:33:24.454Z,1010.47
2018-09-23T00:34:24.384Z,1010.43
2018-09-23T00:35:24.307Z,1010.40
2018-09-23T00:36:24.234Z,1010.31
2018-09-23T00:37:24.154Z,1010.29
2018-09-23T00:38:24.080Z,1010.22
2018-09-23T00:39:24.001Z,1010.17
2018-09-23T00:40:23.929Z,1010.10
2018-09-23T00:41:23.851Z,1010.07
2018-09-23T00:42:23.774Z,1009.99
2018-09-23T00:43:23.699Z,1009.97
2018-09-23T00:44:23.624Z,1010.00
2018-09-23T00:45:23.548Z,1009.99
2018-09-23T00:46:23.471Z,1010.01
2018-09-23T00:47:23.393Z,1010.05
2018-09-23T00:48:23.322Z,1010.10
2018-09-23T00:49:23.243Z,1010.11
2018-09-23T00:50:23.170Z,1010.11
2018-09-23T00:51:23.094Z,1010.02
2018-09-23T00:52:23.065Z,1009.99
2018-09-23T00:53:22.946Z,1009.93
2018-09-23T00:54:22.867Z,1009.87
2018-09-23T00:55:22.788Z,1009.80
2018-09-23T00:56:22.712Z,1009.79
2018-09-23T00:57:22.644Z,1009.78
2018-09-23T00:58:22.558Z,1009.75
2018-09-23T00:59:22.490Z,1009.77
2018-09-23T01:00:22.407Z,1009.77
2018-09-23T01:01:22.333Z,1009.75
2018-09-23T01:02:22.257Z,1009.67
2018-09-23T01:03:22.181Z,1009.67
2018-09-23T01:04:22.104Z,1009.60
2018-09-23T01:05:22.030Z,1009.56
2018-09-23T01:06:21.954Z,1009.53
2018-09-23T01:07:21.878Z,1009.46
2018-09-23T01:08:21.800Z,1009.39
2018-09-23T01:09:21.729Z,1009.33
2018-09-23T01:10:21.649Z,1009.35
2018-09-23T01:11:21.574Z,1009.30
2018-09-23T01:12:21.496Z,1009.26
2018-09-23T01:13:21.420Z,1009.24
2018-09-23T01:14:21.346Z,1009.21
2018-09-23T01:15:21.269Z,1009.16
2018-09-23T01:16:21.218Z,1009.13
2018-09-23T01:17:21.121Z,1009.16
2018-09-23T01:18:21.045Z,1009.18
2018-09-23T01:19:20.970Z,1009.17
2018-09-23T01:20:20.891Z,1009.17
2018-09-23T01:21:20.815Z,1009.17
2018-09-23T01:22:20.739Z,1009.19
2018-09-23T01:23:20.659Z,1009.18
2018-09-23T01:24:20.589Z,1009.09
2018-09-23T01:25:20.512Z,1009.04
2018-09-23T01:26:20.438Z,1009.05
2018-09-23T01:27:20.361Z,1009.03
2018-09-23T01:28:20.282Z,1008.98
2018-09-23T01:29:20.205Z,1008.88
2018-09-23T01:30:20.132Z,1008.85
2018-09-23T01:31:20.053Z,1008.84
2018-09-23T01:32:19.979Z,1008.83
2018-09-23T01:33:19.902Z,1008.84
2018-09-23T01:34:19.825Z,1008.89
2018-09-23T01:35:19.750Z,1008.92
2018-09-23T01:36:19.675Z,1008.83
2018-09-23T01:37:19.596Z,1008.85
2018-09-23T01:38:19.521Z,1008.88
2018-09-23T01:39:19.440Z,1008.80
2018-09-23T01:40:19.367Z,1008.79
2018-09-23T01:41:19.297Z,1008.80
2018-09-23T01:42:19.216Z,1008.71
2018-09-23T01:43:19.139Z,1008.67
2018-09-23T01:44:19.064Z,1008.65
2018-09-23T01:45:18.989Z,1008.67
2018-09-23T01:46:18.920Z,1008.68
2018-09-23T01:47:18.839Z,1008.62
2018-09-23T01:48:18.761Z,1008.57
2018-09-23T01:49:18.684Z,1008.58
2018-09-23T01:50:18.609Z,1008.56
2018-09-23T01:51:18.536Z,1008.58
2018-09-23T01:52:18.455Z,1008.57
2018-09-23T01:53:18.382Z,1008.64
2018-09-23T01:54:18.305Z,1008.68
2018-09-23T01:55:18.229Z,1008.65
2018-09-23T01:56:18.150Z,1008.70
2018-09-23T01:57:18.077Z,1008.74
2018-09-23T01:58:18.006Z,1008.73
2018-09-23T01:59:17.926Z,1008.65
2018-09-23T02:00:17.848Z,1008.59
2018-09-23T02:01:17.774Z,1008.54
2018-09-23T02:02:17.697Z,1008.56
2018-09-23T02:03:17.620Z,1008.49
2018-09-23T02:04:17.548Z,1008.45
2018-09-23T02:05:17.475Z,1008.35
2018-09-23T02:06:17.390Z,1008.37
2018-09-23T02:07:17.314Z,1008.32
2018-09-23T02:08:17.240Z,1008.21
2018-09-23T02:09:17.163Z,1008.15
2018-09-23T02:10:17.088Z,1008.16
2018-09-23T02:11:17.013Z,1008.11
2018-09-23T02:12:16.940Z,1008.13
2018-09-23T02:13:16.862Z,1008.10
2018-09-23T02:14:16.790Z,1008.08
2018-09-23T02:15:16.706Z,1008.06
2018-09-23T02:16:16.631Z,1008.06
2018-09-23T02:17:16.555Z,1008.07
2018-09-23T02:18:16.480Z,1008.13
2018-09-23T02:19:16.404Z,1008.09
2018-09-23T02:20:16.327Z,1008.05
2018-09-23T02:21:16.296Z,1008.02
2018-09-23T02:22:16.174Z,1007.96
2018-09-23T02:23:16.101Z,1007.89
2018-09-23T02:24:16.024Z,1007.85
2018-09-23T02:25:15.948Z,1007.83
2018-09-23T02:26:15.869Z,1007.90
2018-09-23T02:27:15.802Z,1007.89
2018-09-23T02:28:15.723Z,1007.90
2018-09-23T02:29:15.643Z,1007.88
2018-09-23T02:30:15.570Z,1007.86
2018-09-23T02:31:15.494Z,1007.83
2018-09-23T02:32:15.418Z,1007.85
2018-09-23T02:33:15.340Z,1007.81
2018-09-23T02:34:15.264Z,1007.83
2018-09-23T02:35:15.185Z,1007.80
2018-09-23T02:36:15.112Z,1007.76
2018-09-23T02:37:15.036Z,1007.80
2018-09-23T02:38:14.960Z,1007.76
2018-09-23T02:39:14.881Z,1007.71
2018-09-23T02:40:14.807Z,1007.67
2018-09-23T02:41:14.731Z,1007.70
2018-09-23T02:42:14.657Z,1007.74
2018-09-23T02:43:14.578Z,1007.75
2018-09-23T02:44:14.504Z,1007.74
2018-09-23T02:45:14.427Z,1007.65
2018-09-23T02:46:14.352Z,1007.63
2018-09-23T02:47:14.277Z,1007.66
2018-09-23T02:48:14.198Z,1007.67
2018-09-23T02:49:14.122Z,1007.73
2018-09-23T02:50:14.050Z,1007.71
2018-09-23T02:51:13.971Z,1007.66
2018-09-23T02:52:13.893Z,1007.68
2018-09-23T02:53:13.819Z,1007.65
2018-09-23T02:54:13.741Z,1007.60
2018-09-23T02:55:13.666Z,1007.51
2018-09-23T02:56:13.589Z,1007.46
2018-09-23T02:57:13.515Z,1007.40
2018-09-23T02:58:13.442Z,1007.35
2018-09-23T02:59:13.359Z,1007.34
2018-09-23T03:00:13.286Z,1007.33
2018-09-23T03:01:13.212Z,1007.34
2018-09-23T03:02:13.145Z,1007.29
2018-09-23T03:03:13.057Z,1007.33
2018-09-23T03:04:12.981Z,1007.37
2018-09-23T03:05:12.901Z,1007.40
2018-09-23T03:06:12.832Z,1007.39
2018-09-23T03:07:12.752Z,1007.34
2018-09-23T03:08:12.678Z,1007.36
2018-09-23T03:09:12.600Z,1007.38
2018-09-23T03:10:12.527Z,1007.32
2018-09-23T03:11:12.449Z,1007.31
2018-09-23T03:12:12.373Z,1007.25
2018-09-23T03:13:12.297Z,1007.18
2018-09-23T03:14:12.223Z,1007.08
2018-09-23T03:15:12.146Z,1007.05
2018-09-23T03:16:12.067Z,1007.00
2018-09-23T03:17:11.994Z,1006.94
2018-09-23T03:18:11.918Z,1006.94
2018-09-23T03:19:11.841Z,1006.89
2018-09-23T03:20:11.764Z,1006.88
2018-09-23T03:21:11.691Z,1006.85
2018-09-23T03:22:11.614Z,1006.90
2018-09-23T03:23:11.535Z,1006.89
2018-09-23T03:24:11.458Z,1006.91
2018-09-23T03:25:11.380Z,1006.94
2018-09-23T03:26:11.307Z,1006.92
2018-09-23T03:27:11.232Z,1006.93
2018-09-23T03:28:11.156Z,1006.92
2018-09-23T03:29:11.085Z,1006.90
2018-09-23T03:30:11.002Z,1006.82
2018-09-23T03:31:10.922Z,1006.78
2018-09-23T03:32:10.851Z,1006.79
2018-09-23T03:33:10.771Z,1006.73
2018-09-23T03:34:10.697Z,1006.70
2018-09-23T03:35:10.624Z,1006.72
2018-09-23T03:36:10.548Z,1006.78
2018-09-23T03:37:10.469Z,1006.75
2018-09-23T03:38:10.392Z,1006.71
2018-09-23T03:39:10.310Z,1006.66
2018-09-23T03:40:10.241Z,1006.62
2018-09-23T03:41:10.169Z,1006.59
2018-09-23T03:42:10.090Z,1006.53
2018-09-23T03:43:10.011Z,1006.49
2018-09-23T03:44:09.938Z,1006.51
2018-09-23T03:45:09.860Z,1006.47
2018-09-23T03:46:09.782Z,1006.45
2018-09-23T03:47:09.708Z,1006.45
2018-09-23T03:48:09.631Z,1006.44
2018-09-23T03:49:09.553Z,1006.47
2018-09-23T03:50:09.479Z,1006.45
2018-09-23T03:51:09.404Z,1006.46
2018-09-23T03:52:09.326Z,1006.45
2018-09-23T03:53:09.252Z,1006.41
2018-09-23T03:54:09.176Z,1006.44
2018-09-23T03:55:09.099Z,1006.43
2018-09-23T03:56:09.021Z,1006.46
2018-09-23T03:57:08.948Z,1006.53
2018-09-23T03:58:08.884Z,1006.49
2018-09-23T03:59:08.794Z,1006.47
2018-09-23T04:00:08.719Z,1006.44
2018-09-23T04:01:08.643Z,1006.41
2018-09-23T04:02:08.567Z,1006.39
2018-09-23T04:03:08.489Z,1006.32
2018-09-23T04:04:08.413Z,1006.33
2018-09-23T04:05:08.339Z,1006.35
2018-09-23T04:06:08.263Z,1006.31
2018-09-23T04:07:08.189Z,1006.35
2018-09-23T04:08:08.109Z,1006.31
2018-09-23T04:09:08.035Z,1006.31
2018-09-23T04:10:07.959Z,1006.32
2018-09-23T04:11:07.885Z,1006.27
2018-09-23T04:12:07.823Z,1006.27
2018-09-23T04:13:07.729Z,1006.27
2018-09-23T04:14:07.654Z,1006.30
2018-09-23T04:15:07.577Z,1006.21
2018-09-23T04:16:07.502Z,1006.19
2018-09-23T04:17:07.423Z,1006.17
2018-09-23T04:18:07.350Z,1006.03
2018-09-23T04:19:07.274Z,1005.94
2018-09-23T04:20:07.199Z,1005.96
2018-09-23T04:21:07.123Z,1005.91
2018-09-23T04:22:07.042Z,1005.92
2018-09-23T04:23:06.970Z,1005.95
2018-09-23T04:24:06.897Z,1005.93
2018-09-23T04:25:06.815Z,1005.91
2018-09-23T04:26:06.740Z,1005.88
2018-09-23T04:27:06.673Z,1005.85
2018-09-23T04:28:06.585Z,1005.78
2018-09-23T04:29:06.510Z,1005.78
2018-09-23T04:30:06.435Z,1005.78
2018-09-23T04:31:06.372Z,1005.80
2018-09-23T04:32:06.317Z,1005.77
2018-09-23T04:33:06.208Z,1005.80
2018-09-23T04:34:06.131Z,1005.79
2018-09-23T04:35:06.053Z,1005.79
2018-09-23T04:36:05.979Z,1005.75
2018-09-23T04:37:05.902Z,1005.72
2018-09-23T04:38:05.828Z,1005.72
2018-09-23T04:39:05.751Z,1005.69
2018-09-23T04:40:05.680Z,1005.68
2018-09-23T04:41:05.598Z,1005.69
2018-09-23T04:42:05.522Z,1005.68
2018-09-23T04:43:05.444Z,1005.73
2018-09-23T04:44:05.370Z,1005.73
2018-09-23T04:45:05.328Z,1005.72
2018-09-23T04:46:05.219Z,1005.70
2018-09-23T04:47:05.146Z,1005.68
2018-09-23T04:48:05.072Z,1005.70
2018-09-23T04:49:04.990Z,1005.68
2018-09-23T04:50:04.920Z,1005.68
2018-09-23T04:51:04.833Z,1005.67
2018-09-23T04:52:04.761Z,1005.62
2018-09-23T04:53:04.684Z,1005.64
2018-09-23T04:54:04.608Z,1005.62
2018-09-23T04:55:04.577Z,1005.61
2018-09-23T04:56:04.504Z,1005.60
2018-09-23T04:57:04.380Z,1005.58
2018-09-23T04:58:04.306Z,1005.58
2018-09-23T04:59:04.227Z,1005.57
2018-09-23T05:00:04.151Z,1005.57
2018-09-23T05:01:04.077Z,1005.52
2018-09-23T05:02:03.999Z,1005.53
2018-09-23T05:03:03.923Z,1005.50
2018-09-23T05:04:03.846Z,1005.42
2018-09-23T05:05:03.772Z,1005.40
2018-09-23T05:06:03.697Z,1005.38
2018-09-23T05:07:03.620Z,1005.41
2018-09-23T05:08:03.544Z,1005.37
2018-09-23T05:09:03.467Z,1005.38
2018-09-23T05:10:03.447Z,1005.31
2018-09-23T05:11:03.315Z,1005.34
2018-09-23T05:12:03.243Z,1005.31
2018-09-23T05:13:03.164Z,1005.29
2018-09-23T05:14:03.104Z,1005.31
2018-09-23T05:15:03.011Z,1005.31
2018-09-23T05:16:02.938Z,1005.29
2018-09-23T05:17:02.860Z,1005.33
2018-09-23T05:18:02.788Z,1005.32
2018-09-23T05:19:02.707Z,1005.31
2018-09-23T05:20:02.629Z,1005.34
2018-09-23T05:21:02.560Z,1005.29
2018-09-23T05:22:02.482Z,1005.26
2018-09-23T05:23:02.402Z,1005.21
2018-09-23T05:24:02.328Z,1005.16
2018-09-23T05:25:02.253Z,1005.17
2018-09-23T05:26:02.175Z,1005.10
2018-09-23T05:27:02.099Z,1005.12
2018-09-23T05:28:02.023Z,1005.17
2018-09-23T05:29:01.949Z,1005.12
2018-09-23T05:30:01.870Z,1005.14
2018-09-23T05:31:01.859Z,1005.12
2018-09-23T05:32:01.720Z,1005.13
2018-09-23T05:33:01.644Z,1005.11
2018-09-23T05:34:01.569Z,1005.12
2018-09-23T05:35:01.493Z,1005.14
2018-09-23T05:36:01.416Z,1005.14
2018-09-23T05:37:01.342Z,1005.14
2018-09-23T05:38:01.264Z,1005.14
2018-09-23T05:39:01.186Z,1005.15
2018-09-23T05:40:01.112Z,1005.12
2018-09-23T05:41:01.035Z,1005.14
2018-09-23T05:42:00.960Z,1005.14
2018-09-23T05:43:00.885Z,1005.12
2018-09-23T05:44:00.837Z,1005.16
2018-09-23T05:45:00.731Z,1005.19
2018-09-23T05:46:00.659Z,1005.17
2018-09-23T05:47:00.581Z,1005.16
2018-09-23T05:48:00.506Z,1005.16
2018-09-23T05:49:00.433Z,1005.12
2018-09-23T05:50:00.352Z,1005.11
2018-09-23T05:51:00.277Z,1005.06
2018-09-23T05:52:00.204Z,1005.02
2018-09-23T05:53:00.129Z,1005.06
2018-09-23T05:54:00.053Z,1005.02
2018-09-23T05:54:59.983Z,1004.97
2018-09-23T05:55:59.898Z,1004.93
2018-09-23T05:56:59.828Z,1004.87
2018-09-23T05:57:59.747Z,1004.90
2018-09-23T05:58:59.671Z,1004.95
2018-09-23T05:59:59.599Z,1004.99
2018-09-23T06:00:59.518Z,1004.97
2018-09-23T06:01:59.444Z,1004.89
2018-09-23T06:02:59.424Z,1004.91
2018-09-23T06:03:59.291Z,1004.87
2018-09-23T06:04:59.221Z,1004.88
2018-09-23T06:05:59.141Z,1004.89
2018-09-23T06:06:59.063Z,1004.84
2018-09-23T06:07:58.986Z,1004.89
2018-09-23T06:08:58.939Z,1004.88
2018-09-23T06:09:58.842Z,1004.91
2018-09-23T06:10:58.763Z,1004.87
2018-09-23T06:11:58.683Z,1004.87
2018-09-23T06:12:58.608Z,1004.88
2018-09-23T06:13:58.533Z,1004.86
2018-09-23T06:14:58.459Z,1004.90
2018-09-23T06:15:58.380Z,1004.90
2018-09-23T06:16:58.303Z,1004.89
2018-09-23T06:17:58.228Z,1004.86
2018-09-23T06:18:58.153Z,1004.81
2018-09-23T06:19:58.078Z,1004.83
2018-09-23T06:20:58.003Z,1004.78
2018-09-23T06:21:57.928Z,1004.78
2018-09-23T06:22:57.849Z,1004.76
2018-09-23T06:23:57.777Z,1004.73
2018-09-23T06:24:57.700Z,1004.73
2018-09-23T06:25:57.629Z,1004.74
2018-09-23T06:26:57.549Z,1004.71
2018-09-23T06:27:57.470Z,1004.66
2018-09-23T06:28:57.398Z,1004.63
2018-09-23T06:29:57.321Z,1004.65
2018-09-23T06:30:57.246Z,1004.65
2018-09-23T06:31:57.169Z,1004.72
2018-09-23T06:32:57.094Z,1004.71
2018-09-23T06:33:57.015Z,1004.66
2018-09-23T06:34:56.944Z,1004.68
2018-09-23T06:35:56.868Z,1004.63
2018-09-23T06:36:56.818Z,1004.65
2018-09-23T06:37:56.718Z,1004.61
2018-09-23T06:38:56.640Z,1004.62
2018-09-23T06:39:56.567Z,1004.62
2018-09-23T06:40:56.489Z,1004.58
2018-09-23T06:41:56.412Z,1004.58
2018-09-23T06:42:56.341Z,1004.58
2018-09-23T06:43:56.263Z,1004.61
2018-09-23T06:44:56.185Z,1004.62
2018-09-23T06:45:56.110Z,1004.65
2018-09-23T06:46:56.034Z,1004.62
2018-09-23T06:47:55.964Z,1004.64
2018-09-23T06:48:55.886Z,1004.59
2018-09-23T06:49:55.809Z,1004.62
2018-09-23T06:50:55.731Z,1004.59
2018-09-23T06:51:55.660Z,1004.57
2018-09-23T06:52:55.587Z,1004.57
2018-09-23T06:53:55.507Z,1004.57
2018-09-23T06:54:55.431Z,1004.62
2018-09-23T06:55:55.354Z,1004.63
2018-09-23T06:56:55.314Z,1004.60
2018-09-23T06:57:55.205Z,1004.58
2018-09-23T06:58:55.126Z,1004.59
2018-09-23T06:59:55.051Z,1004.52
2018-09-23T07:00:54.978Z,1004.55
2018-09-23T07:01:54.904Z,1004.52
2018-09-23T07:02:54.826Z,1004.52
2018-09-23T07:03:54.747Z,1004.48
2018-09-23T07:04:54.718Z,1004.48
2018-09-23T07:05:54.599Z,1004.46
2018-09-23T07:06:54.523Z,1004.51
2018-09-23T07:07:54.447Z,1004.43
2018-09-23T07:08:54.372Z,1004.40
2018-09-23T07:09:54.302Z,1004.39
2018-09-23T07:10:54.223Z,1004.37
2018-09-23T07:11:54.145Z,1004.40
2018-09-23T07:12:54.068Z,1004.40
2018-09-23T07:13:53.996Z,1004.40
2018-09-23T07:14:53.919Z,1004.37
2018-09-23T07:15:53.845Z,1004.34
2018-09-23T07:16:53.769Z,1004.33
2018-09-23T07:17:53.695Z,1004.33
2018-09-23T07:18:53.619Z,1004.31
2018-09-23T07:19:53.549Z,1004.34
2018-09-23T07:20:53.471Z,1004.34
2018-09-23T07:21:53.394Z,1004.39
2018-09-23T07:22:53.317Z,1004.33
2018-09-23T07:23:53.312Z,1004.33
2018-09-23T07:24:53.169Z,1004.28
2018-09-23T07:25:53.091Z,1004.27
2018-09-23T07:26:53.018Z,1004.27
2018-09-23T07:27:52.941Z,1004.28
2018-09-23T07:28:52.865Z,1004.30
2018-09-23T07:29:52.802Z,1004.23
2018-09-23T07:30:52.717Z,1004.28
2018-09-23T07:31:52.641Z,1004.22
2018-09-23T07:32:52.567Z,1004.26
2018-09-23T07:33:52.490Z,1004.24
2018-09-23T07:34:52.416Z,1004.22
2018-09-23T07:35:52.341Z,1004.28
2018-09-23T07:36:52.345Z,1004.26
2018-09-23T07:37:52.196Z,1004.25
2018-09-23T07:38:52.112Z,1004.25
2018-09-23T07:39:52.074Z,1004.28
2018-09-23T07:40:51.964Z,1004.26
2018-09-23T07:41:51.889Z,1004.30
2018-09-23T07:42:51.813Z,1004.28
2018-09-23T07:43:51.743Z,1004.27
2018-09-23T07:44:51.664Z,1004.26
2018-09-23T07:45:51.590Z,1004.31
2018-09-23T07:46:51.514Z,1004.27
2018-09-23T07:47:51.495Z,1004.25
2018-09-23T07:48:51.365Z,1004.26
2018-09-23T07:49:51.291Z,1004.29
2018-09-23T07:50:51.214Z,1004.24
2018-09-23T07:51:51.139Z,1004.22
2018-09-23T07:52:51.066Z,1004.17
2018-09-23T07:53:50.993Z,1004.22
2018-09-23T07:54:50.916Z,1004.27
2018-09-23T07:55:50.843Z,1004.20
2018-09-23T07:56:50.769Z,1004.20
2018-09-23T07:57:50.689Z,1004.16
2018-09-23T07:58:50.617Z,1004.13
2018-09-23T07:59:50.542Z,1004.16
2018-09-23T08:00:50.465Z,1004.14
2018-09-23T08:01:50.390Z,1004.14
2018-09-23T08:02:50.312Z,1004.14
2018-09-23T08:03:50.243Z,1004.12
2018-09-23T08:04:50.165Z,1004.09
2018-09-23T08:05:50.094Z,1004.07
2018-09-23T08:06:50.016Z,1004.01
2018-09-23T08:07:49.943Z,1003.99
2018-09-23T08:08:49.866Z,1004.00
2018-09-23T08:09:49.798Z,1004.02
2018-09-23T08:10:49.716Z,1004.02
2018-09-23T08:11:49.705Z,1004.07
2018-09-23T08:12:49.757Z,1004.05
2018-09-23T08:13:49.673Z,1004.07
2018-09-23T08:14:49.864Z,1004.05
2018-09-23T08:15:49.346Z,1004.06
2018-09-23T08:16:49.278Z,1004.07
2018-09-23T08:17:49.188Z,1003.98
2018-09-23T08:18:49.121Z,1004.02
2018-09-23T08:19:49.196Z,1003.99
2018-09-23T08:20:48.973Z,1004.00
2018-09-23T08:21:48.896Z,1004.01
2018-09-23T08:22:48.828Z,1004.02
2018-09-23T08:23:48.752Z,1004.01
2018-09-23T08:24:48.673Z,1003.95
2018-09-23T08:25:48.598Z,1003.94
2018-09-23T08:26:48.528Z,1003.96
2018-09-23T08:27:48.446Z,1003.96
2018-09-23T08:28:48.374Z,1004.04
2018-09-23T08:29:48.298Z,1004.00
2018-09-23T08:30:48.225Z,1003.99
2018-09-23T08:31:48.151Z,1003.99
2018-09-23T08:32:48.099Z,1003.95
2018-09-23T08:33:48.002Z,1003.95
2018-09-23T08:34:47.924Z,1003.97
2018-09-23T08:35:47.852Z,1003.93
2018-09-23T08:36:47.775Z,1003.98
2018-09-23T08:37:47.705Z,1003.92
2018-09-23T08:38:47.626Z,1003.99
2018-09-23T08:39:47.594Z,1003.99
2018-09-23T08:40:47.482Z,1003.99
2018-09-23T08:41:47.400Z,1003.96
2018-09-23T08:42:47.378Z,1003.95
2018-09-23T08:43:47.264Z,1003.89
2018-09-23T08:44:47.180Z,1003.86
2018-09-23T08:45:47.105Z,1003.88
2018-09-23T08:46:47.031Z,1003.91
2018-09-23T08:47:46.961Z,1003.86
2018-09-23T08:48:46.882Z,1003.80
2018-09-23T08:49:46.810Z,1003.80
2018-09-23T08:50:46.734Z,1003.80
2018-09-23T08:51:46.728Z,1003.74
2018-09-23T08:52:46.586Z,1003.75
2018-09-23T08:53:46.511Z,1003.79
2018-09-23T08:54:46.444Z,1003.75
2018-09-23T08:55:46.365Z,1003.79
2018-09-23T08:56:46.364Z,1003.69
2018-09-23T08:57:46.245Z,1003.66
2018-09-23T08:58:46.139Z,1003.66
2018-09-23T08:59:46.065Z,1003.63
2018-09-23T09:00:45.992Z,1003.66
2018-09-23T09:01:45.918Z,1003.62
2018-09-23T09:02:45.839Z,1003.62
2018-09-23T09:03:45.810Z,1003.59
2018-09-23T09:04:45.693Z,1003.58
2018-09-23T09:05:45.617Z,1003.61
2018-09-23T09:06:45.543Z,1003.65
2018-09-23T09:07:45.471Z,1003.66
2018-09-23T09:08:45.395Z,1003.68
2018-09-23T09:09:45.326Z,1003.63
2018-09-23T09:10:45.249Z,1003.56
2018-09-23T09:11:45.191Z,1003.52
2018-09-23T09:12:45.096Z,1003.50
2018-09-23T09:13:45.023Z,1003.49
2018-09-23T09:14:44.951Z,1003.42
2018-09-23T09:15:44.877Z,1003.37
2018-09-23T09:16:44.800Z,1003.31
2018-09-23T09:17:44.726Z,1003.35
2018-09-23T09:18:44.769Z,1003.27
2018-09-23T09:19:44.576Z,1003.28
2018-09-23T09:20:44.503Z,1003.27
2018-09-23T09:21:44.430Z,1003.22
2018-09-23T09:22:44.358Z,1003.23
2018-09-23T09:23:44.281Z,1003.22
2018-09-23T09:24:44.205Z,1003.17
2018-09-23T09:25:44.131Z,1003.17
2018-09-23T09:26:44.077Z,1003.10
2018-09-23T09:27:43.983Z,1003.10
2018-09-23T09:28:43.911Z,1003.07
2018-09-23T09:29:43.839Z,1003.02
2018-09-23T09:30:43.764Z,1003.09
2018-09-23T09:31:43.688Z,1003.06
2018-09-23T09:32:43.614Z,1003.05
2018-09-23T09:33:43.541Z,1002.99
2018-09-23T09:34:43.467Z,1002.91
2018-09-23T09:35:43.390Z,1002.96
2018-09-23T09:36:43.318Z,1002.92
2018-09-23T09:37:43.245Z,1002.91
2018-09-23T09:38:43.178Z,1002.92
2018-09-23T09:39:43.100Z,1002.91
2018-09-23T09:40:43.024Z,1002.85
2018-09-23T09:41:42.950Z,1002.88
2018-09-23T09:42:42.874Z,1002.91
2018-09-23T09:43:42.803Z,1002.85
2018-09-23T09:44:42.729Z,1002.86
2018-09-23T09:45:42.655Z,1002.82
2018-09-23T09:46:42.580Z,1002.82
2018-09-23T09:47:42.513Z,1002.85
2018-09-23T09:48:42.451Z,1002.84
2018-09-23T09:49:42.368Z,1002.80
2018-09-23T09:50:42.288Z,1002.78
2018-09-23T09:51:42.212Z,1002.73
2018-09-23T09:52:42.137Z,1002.72
2018-09-23T09:53:42.070Z,1002.74
2018-09-23T09:54:41.997Z,1002.69
2018-09-23T09:55:41.917Z,1002.66
2018-09-23T09:56:41.844Z,1002.66
2018-09-23T09:57:41.769Z,1002.65
2018-09-23T09:58:41.694Z,1002.59
2018-09-23T09:59:41.622Z,1002.62
2018-09-23T10:00:41.549Z,1002.60
2018-09-23T10:01:41.474Z,1002.54
2018-09-23T10:02:41.399Z,1002.57
2018-09-23T10:03:41.346Z,1002.58
2018-09-23T10:04:41.253Z,1002.54
2018-09-23T10:05:41.179Z,1002.49
2018-09-23T10:06:41.102Z,1002.45
2018-09-23T10:07:41.029Z,1002.42
2018-09-23T10:08:40.957Z,1002.42
2018-09-23T10:09:40.882Z,1002.38
2018-09-23T10:10:40.810Z,1002.33
2018-09-23T10:11:40.767Z,1002.37
2018-09-23T10:12:40.665Z,1002.26
2018-09-23T10:13:40.589Z,1002.21
2018-09-23T10:14:40.514Z,1002.23
2018-09-23T10:15:40.441Z,1002.23
2018-09-23T10:16:40.367Z,1002.18
2018-09-23T10:17:40.297Z,1002.14
2018-09-23T10:18:40.220Z,1002.10
2018-09-23T10:19:40.155Z,1002.03
2018-09-23T10:20:40.072Z,1001.93
2018-09-23T10:21:39.999Z,1001.85
2018-09-23T10:22:39.994Z,1001.85
2018-09-23T10:23:40.065Z,1001.87
2018-09-23T10:24:39.779Z,1001.82
2018-09-23T10:25:39.708Z,1001.81
2018-09-23T10:26:39.632Z,1001.81
2018-09-23T10:27:39.597Z,1001.77
2018-09-23T10:28:39.484Z,1001.77
2018-09-23T10:29:39.431Z,1001.69
2018-09-23T10:30:39.337Z,1001.66
2018-09-23T10:31:39.309Z,1001.65
2018-09-23T10:32:39.190Z,1001.61
2018-09-23T10:33:39.121Z,1001.58
2018-09-23T10:34:39.043Z,1001.56
2018-09-23T10:35:38.971Z,1001.52
2018-09-23T10:36:38.894Z,1001.43
2018-09-23T10:37:38.822Z,1001.44
2018-09-23T10:38:38.749Z,1001.38
2018-09-23T10:39:38.674Z,1001.34
2018-09-23T10:40:38.603Z,1001.32
2018-09-23T10:41:38.532Z,1001.26
2018-09-23T10:42:38.455Z,1001.31
2018-09-23T10:43:38.383Z,1001.25
2018-09-23T10:44:38.315Z,1001.24
2018-09-23T10:45:38.235Z,1001.18
2018-09-23T10:46:38.162Z,1001.15
2018-09-23T10:47:38.089Z,1001.06
2018-09-23T10:48:38.018Z,1000.99
2018-09-23T10:49:37.943Z,1000.96
2018-09-23T10:50:37.869Z,1000.99
2018-09-23T10:51:37.801Z,1000.96
2018-09-23T10:52:37.722Z,1000.97
2018-09-23T10:53:37.650Z,1000.97
2018-09-23T10:54:37.576Z,1000.93
2018-09-23T10:55:37.557Z,1000.88
2018-09-23T10:56:37.429Z,1000.83
2018-09-23T10:57:37.357Z,1000.80
2018-09-23T10:58:37.289Z,1000.73
2018-09-23T10:59:37.288Z,1000.75
2018-09-23T11:00:37.139Z,1000.69
2018-09-23T11:01:37.064Z,1000.68
2018-09-23T11:02:36.994Z,1000.65
2018-09-23T11:03:36.939Z,1000.64
2018-09-23T11:04:36.843Z,1000.64
2018-09-23T11:05:36.793Z,1000.63
2018-09-23T11:06:36.696Z,1000.65
2018-09-23T11:07:36.629Z,1000.67
2018-09-23T11:08:36.558Z,1000.68
2018-09-23T11:09:36.495Z,1000.63
2018-09-23T11:10:36.401Z,1000.61
2018-09-23T11:11:36.341Z,1000.52
2018-09-23T11:12:36.261Z,1000.53
2018-09-23T11:13:36.185Z,1000.46
2018-09-23T11:14:36.115Z,1000.48
2018-09-23T11:15:36.038Z,1000.47
2018-09-23T11:16:35.965Z,1000.42
2018-09-23T11:17:35.894Z,1000.39
2018-09-23T11:18:35.817Z,1000.37
2018-09-23T11:19:35.745Z,1000.39
2018-09-23T11:20:35.670Z,1000.37
2018-09-23T11:21:35.602Z,1000.37
2018-09-23T11:22:35.521Z,1000.31
2018-09-23T11:23:35.450Z,1000.35
2018-09-23T11:24:35.400Z,1000.38
2018-09-23T11:25:35.300Z,1000.37
2018-09-23T11:26:35.226Z,1000.42
2018-09-23T11:27:35.152Z,1000.40
2018-09-23T11:28:35.082Z,1000.44
2018-09-23T11:29:35.007Z,1000.45
2018-09-23T11:30:34.956Z,1000.51
2018-09-23T11:31:34.864Z,1000.58
2018-09-23T11:32:34.786Z,1000.57
2018-09-23T11:33:34.708Z,1000.51
2018-09-23T11:34:34.638Z,1000.52
2018-09-23T11:35:34.567Z,1000.46
2018-09-23T11:36:34.495Z,1000.35
2018-09-23T11:37:34.417Z,1000.16
2018-09-23T11:38:34.341Z,1000.06
2018-09-23T11:39:34.268Z,1000.07
2018-09-23T11:40:34.193Z,1000.08
2018-09-23T11:41:34.119Z,1000.07
2018-09-23T11:42:34.048Z,1000.03
2018-09-23T11:43:33.972Z,999.96
2018-09-23T11:44:33.899Z,999.91
2018-09-23T11:45:33.827Z,999.86
2018-09-23T11:46:33.750Z,999.74
2018-09-23T11:47:33.677Z,999.64
2018-09-23T11:48:33.603Z,999.54
2018-09-23T11:49:33.534Z,999.46
2018-09-23T11:50:33.454Z,999.39
2018-09-23T11:51:33.380Z,999.35
2018-09-23T11:52:33.308Z,999.34
2018-09-23T11:53:33.238Z,999.33
2018-09-23T11:54:33.161Z,999.35
2018-09-23T11:55:33.090Z,999.39
2018-09-23T11:56:33.014Z,999.38
2018-09-23T11:57:32.959Z,999.26
2018-09-23T11:58:32.864Z,999.21
2018-09-23T11:59:32.790Z,999.17
2018-09-23T12:00:32.715Z,999.11
2018-09-23T12:01:32.644Z,999.10
2018-09-23T12:02:32.568Z,999.19
2018-09-23T12:03:32.494Z,999.22
2018-09-23T12:04:32.488Z,999.09
2018-09-23T12:05:32.345Z,998.98